createdAt,value
2022-09-18T00:01:02.935Z,96.56
2022-09-18T00:03:29.610Z,96.59
2022-09-18T00:05:56.729Z,96.52
2022-09-18T00:08:23.925Z,96.28
2022-09-18T00:10:50.891Z,96.55
2022-09-18T00:13:17.528Z,96.06
2022-09-18T00:15:54.984Z,96.20
2022-09-18T00:18:21.885Z,96.27
2022-09-18T00:20:48.700Z,96.53
2022-09-18T00:23:15.759Z,96.30
2022-09-18T00:25:42.698Z,96.03
2022-09-18T00:28:09.508Z,96.25
2022-09-18T00:30:36.477Z,96.30
2022-09-18T00:33:03.287Z,96.32
2022-09-18T00:35:30.049Z,96.22
2022-09-18T00:37:57.818Z,96.43
2022-09-18T00:40:24.690Z,96.50
2022-09-18T00:42:51.265Z,96.62
2022-09-18T00:45:18.212Z,96.55
2022-09-18T00:47:48.346Z,96.33
2022-09-18T00:50:20.118Z,96.45
2022-09-18T00:53:02.060Z,96.06
2022-09-18T00:55:34.430Z,96.39
2022-09-18T00:58:02.823Z,96.14
2022-09-18T01:00:31.412Z,96.10
2022-09-18T01:03:01.317Z,95.90
2022-09-18T01:06:07.527Z,95.91
2022-09-18T01:08:41.882Z,95.81
2022-09-18T01:11:23.002Z,95.80
2022-09-18T01:14:07.774Z,95.46
2022-09-18T01:16:57.639Z,95.53
2022-09-18T01:19:49.112Z,95.55
2022-09-18T01:22:34.362Z,95.56
2022-09-18T01:25:30.978Z,95.51
2022-09-18T01:28:47.930Z,95.40
2022-09-18T01:31:31.728Z,95.36
2022-09-18T01:34:13.678Z,95.24
2022-09-18T01:36:46.257Z,94.98
2022-09-18T01:39:23.935Z,94.97
2022-09-18T01:41:52.096Z,94.70
2022-09-18T01:44:23.287Z,94.40
2022-09-18T01:46:51.189Z,94.20
2022-09-18T01:49:23.493Z,94.27
2022-09-18T01:52:18.246Z,94.00
2022-09-18T01:54:49.119Z,93.90
2022-09-18T01:57:29.929Z,93.78
2022-09-18T02:00:02.681Z,93.77
2022-09-18T02:02:43.297Z,93.84
2022-09-18T02:05:15.160Z,93.90
2022-09-18T02:07:58.727Z,93.88
2022-09-18T02:10:30.891Z,93.73
2022-09-18T02:12:57.967Z,94.02
2022-09-18T02:15:27.286Z,94.09
2022-09-18T02:17:59.109Z,93.93
2022-09-18T02:20:29.657Z,94.27
2022-09-18T02:22:59.490Z,94.40
2022-09-18T02:25:49.772Z,94.20
2022-09-18T02:28:19.748Z,94.58
2022-09-18T02:30:46.671Z,94.84
2022-09-18T02:33:27.983Z,94.74
2022-09-18T02:36:10.285Z,94.47
2022-09-18T02:38:49.645Z,94.88
2022-09-18T02:41:29.554Z,94.76
2022-09-18T02:44:19.740Z,94.92
2022-09-18T02:47:10.445Z,94.71
2022-09-18T02:49:49.016Z,94.75
2022-09-18T02:52:28.110Z,94.35
2022-09-18T02:55:18.868Z,94.64
2022-09-18T02:57:54.200Z,94.61
2022-09-18T03:00:21.437Z,94.40
2022-09-18T03:02:50.853Z,94.20
2022-09-18T03:05:18.142Z,94.09
2022-09-18T03:07:44.811Z,93.84
2022-09-18T03:10:11.769Z,93.78
2022-09-18T03:12:38.927Z,93.57
2022-09-18T03:15:06.723Z,93.39
2022-09-18T03:17:33.674Z,93.08
2022-09-18T03:20:00.650Z,93.06
2022-09-18T03:22:27.462Z,92.88
2022-09-18T03:24:56.272Z,92.61
2022-09-18T03:27:23.422Z,92.44
2022-09-18T03:29:50.241Z,92.30
2022-09-18T03:32:17.078Z,92.36
2022-09-18T03:34:43.951Z,92.53
2022-09-18T03:37:10.748Z,92.26
2022-09-18T03:39:37.910Z,92.29
2022-09-18T03:42:05.402Z,92.52
2022-09-18T03:44:32.136Z,92.44
2022-09-18T03:46:59.141Z,92.73
2022-09-18T03:49:26.464Z,92.61
2022-09-18T03:51:53.488Z,93.19
2022-09-18T03:54:20.251Z,93.18
2022-09-18T03:56:47.674Z,93.26
2022-09-18T03:59:14.655Z,93.42
2022-09-18T04:01:41.802Z,93.03
2022-09-18T04:04:08.807Z,93.14
2022-09-18T04:06:35.619Z,93.11
2022-09-18T04:09:02.882Z,93.16
2022-09-18T04:11:30.301Z,93.11
2022-09-18T04:13:57.272Z,93.28
2022-09-18T04:16:24.440Z,93.08
2022-09-18T04:18:51.506Z,93.33
2022-09-18T04:21:18.484Z,93.36
2022-09-18T04:23:45.782Z,93.41
2022-09-18T04:26:12.541Z,93.57
2022-09-18T04:28:39.043Z,93.87
2022-09-18T04:31:08.781Z,93.72
2022-09-18T04:33:35.827Z,93.55
2022-09-18T04:36:02.613Z,93.85
2022-09-18T04:38:29.898Z,93.74
2022-09-18T04:40:57.993Z,93.23
2022-09-18T04:43:26.085Z,93.33
2022-09-18T04:45:53.920Z,92.92
2022-09-18T04:48:21.644Z,92.91
2022-09-18T04:50:49.492Z,92.56
2022-09-18T04:53:16.468Z,92.31
2022-09-18T04:55:44.941Z,92.45
2022-09-18T04:58:13.116Z,92.09
2022-09-18T05:00:40.182Z,92.09
2022-09-18T05:03:07.749Z,91.85
2022-09-18T05:05:35.097Z,91.94
2022-09-18T05:08:02.510Z,91.86
2022-09-18T05:10:29.275Z,91.66
2022-09-18T05:12:55.969Z,91.71
2022-09-18T05:15:22.780Z,91.80
2022-09-18T05:17:57.496Z,91.43
2022-09-18T05:20:24.303Z,91.32
2022-09-18T05:22:51.116Z,91.13
2022-09-18T05:25:20.547Z,91.02
2022-09-18T05:27:54.895Z,90.72
2022-09-18T05:30:22.518Z,90.94
2022-09-18T05:33:02.627Z,90.66
2022-09-18T05:35:31.842Z,90.45
2022-09-18T05:37:58.600Z,90.06
2022-09-18T05:40:31.118Z,89.73
2022-09-18T05:42:58.348Z,89.72
2022-09-18T05:45:25.925Z,89.31
2022-09-18T05:48:06.421Z,88.93
2022-09-18T05:50:34.371Z,88.33
2022-09-18T05:53:10.848Z,87.87
2022-09-18T05:55:42.033Z,87.73
2022-09-18T05:58:13.836Z,87.85
2022-09-18T06:00:41.084Z,87.62
2022-09-18T06:03:11.672Z,87.40
2022-09-18T06:05:39.280Z,87.54
2022-09-18T06:08:08.787Z,87.88
2022-09-18T06:10:39.569Z,87.92
2022-09-18T06:13:17.651Z,88.23
2022-09-18T06:15:49.454Z,88.37
2022-09-18T06:18:16.479Z,88.82
2022-09-18T06:20:47.316Z,88.82
2022-09-18T06:23:13.994Z,88.87
2022-09-18T06:25:41.204Z,88.91
2022-09-18T06:28:08.010Z,88.64
2022-09-18T06:30:36.363Z,88.34
2022-09-18T06:33:06.039Z,87.95
2022-09-18T06:35:36.301Z,87.76
2022-09-18T06:38:04.291Z,87.28
2022-09-18T06:40:32.477Z,86.45
2022-09-18T06:43:01.747Z,85.77
2022-09-18T06:45:29.639Z,85.21
2022-09-18T06:48:00.151Z,85.17
2022-09-18T06:50:27.291Z,84.56
2022-09-18T06:52:54.371Z,84.29
2022-09-18T06:55:21.410Z,84.64
2022-09-18T06:57:57.238Z,84.58
2022-09-18T07:00:25.195Z,84.12
2022-09-18T07:02:59.890Z,84.37
2022-09-18T07:05:28.908Z,85.33
2022-09-18T07:07:55.521Z,86.82
2022-09-18T07:10:23.002Z,87.28
2022-09-18T07:12:49.918Z,88.20
2022-09-18T07:15:18.012Z,88.94
2022-09-18T07:17:45.556Z,89.20
2022-09-18T07:20:13.929Z,89.17
2022-09-18T07:22:46.400Z,88.71
2022-09-18T07:25:14.150Z,88.34
2022-09-18T07:27:41.084Z,88.30
2022-09-18T07:30:08.383Z,87.93
2022-09-18T07:32:35.940Z,87.70
2022-09-18T07:35:02.749Z,88.02
2022-09-18T07:37:29.530Z,87.33
2022-09-18T07:39:56.175Z,86.83
2022-09-18T07:42:24.214Z,86.91
2022-09-18T07:44:51.115Z,84.81
2022-09-18T07:47:18.101Z,84.36
2022-09-18T07:49:44.907Z,83.61
2022-09-18T07:52:12.167Z,82.15
2022-09-18T07:54:39.057Z,82.12
2022-09-18T07:57:05.959Z,81.02
2022-09-18T07:59:33.447Z,80.09
2022-09-18T08:02:00.988Z,80.54
2022-09-18T08:04:27.920Z,83.02
2022-09-18T08:06:55.125Z,84.15
2022-09-18T08:09:22.401Z,85.50
2022-09-18T08:11:52.219Z,87.95
2022-09-18T08:14:18.945Z,89.18
2022-09-18T08:16:45.867Z,92.93
2022-09-18T08:19:16.019Z,95.63
2022-09-18T08:21:43.100Z,96.50
2022-09-18T08:24:10.135Z,97.19
2022-09-18T08:26:38.606Z,97.85
2022-09-18T08:29:06.417Z,97.23
2022-09-18T08:31:34.390Z,96.97
2022-09-18T08:34:01.882Z,95.68
2022-09-18T08:36:28.513Z,94.15
2022-09-18T08:38:55.875Z,90.48
2022-09-18T08:41:26.701Z,88.26
2022-09-18T08:44:16.742Z,88.39
2022-09-18T08:47:01.618Z,88.58
2022-09-18T08:49:54.496Z,90.03
2022-09-18T08:52:24.252Z,88.40
2022-09-18T08:54:57.007Z,86.97
2022-09-18T08:57:28.778Z,86.67
2022-09-18T09:00:23.052Z,87.02
2022-09-18T09:02:52.570Z,86.31
2022-09-18T09:05:22.791Z,86.29
2022-09-18T09:08:17.396Z,84.80
2022-09-18T09:10:58.830Z,83.82
2022-09-18T09:13:53.957Z,82.93
2022-09-18T09:16:40.684Z,83.54
2022-09-18T09:19:28.532Z,82.31
2022-09-18T09:22:18.181Z,81.64
2022-09-18T09:25:06.680Z,81.03
2022-09-18T09:27:46.121Z,81.34
2022-09-18T09:30:17.098Z,80.77
2022-09-18T09:33:07.003Z,80.16
2022-09-18T09:35:46.771Z,79.66
2022-09-18T09:38:41.281Z,79.89
2022-09-18T09:41:28.470Z,79.30
2022-09-18T09:44:03.942Z,80.19
2022-09-18T09:46:49.088Z,80.32
2022-09-18T09:49:26.816Z,80.20
2022-09-18T09:52:09.097Z,79.10
2022-09-18T09:54:36.476Z,79.19
2022-09-18T09:57:19.231Z,76.96
2022-09-18T09:59:51.441Z,76.46
2022-09-18T10:02:27.458Z,75.96
2022-09-18T10:05:18.169Z,75.13
2022-09-18T10:07:52.991Z,75.34
2022-09-18T10:10:45.572Z,75.06
2022-09-18T10:13:21.022Z,74.82
2022-09-18T10:15:52.010Z,75.26
2022-09-18T10:18:21.949Z,75.80
2022-09-18T10:20:53.880Z,74.95
2022-09-18T10:23:33.562Z,73.95
2022-09-18T10:26:01.534Z,74.94
2022-09-18T10:28:29.729Z,75.29
2022-09-18T10:31:10.803Z,75.85
2022-09-18T10:33:52.956Z,75.76
2022-09-18T10:36:51.844Z,75.01
2022-09-18T10:39:36.351Z,73.97
2022-09-18T10:42:05.098Z,74.34
2022-09-18T10:44:43.280Z,72.36
2022-09-18T10:47:19.433Z,71.25
2022-09-18T10:49:55.143Z,69.76
2022-09-18T10:52:27.553Z,70.15
2022-09-18T10:55:18.386Z,69.98
2022-09-18T10:57:56.898Z,70.45
2022-09-18T11:00:24.382Z,72.18
2022-09-18T11:03:12.925Z,73.71
2022-09-18T11:06:07.778Z,74.60
2022-09-18T11:08:41.338Z,75.28
2022-09-18T11:11:12.414Z,74.92
2022-09-18T11:13:53.304Z,74.12
2022-09-18T11:16:28.699Z,74.28
2022-09-18T11:19:26.539Z,73.33
2022-09-18T11:21:59.323Z,73.55
2022-09-18T11:24:31.961Z,72.80
2022-09-18T11:27:01.067Z,73.29
2022-09-18T11:29:33.134Z,72.69
2022-09-18T11:32:18.108Z,70.96
2022-09-18T11:34:57.719Z,71.30
2022-09-18T11:37:52.311Z,69.71
2022-09-18T11:40:21.174Z,69.78
2022-09-18T11:42:52.235Z,70.34
2022-09-18T11:45:35.049Z,69.63
2022-09-18T11:48:22.848Z,69.64
2022-09-18T11:50:54.280Z,68.33
2022-09-18T11:53:26.076Z,66.71
2022-09-18T11:56:11.510Z,65.96
2022-09-18T11:58:47.296Z,65.73
2022-09-18T12:01:22.840Z,67.02
2022-09-18T12:03:55.792Z,68.03
2022-09-18T12:06:47.928Z,68.74
2022-09-18T12:09:31.451Z,69.44
2022-09-18T12:12:15.988Z,68.24
2022-09-18T12:15:09.600Z,69.52
2022-09-18T12:17:43.693Z,70.52
2022-09-18T12:20:22.075Z,71.80
2022-09-18T12:22:53.483Z,72.37
2022-09-18T12:25:27.221Z,69.79
2022-09-18T12:28:28.211Z,70.41
2022-09-18T12:31:22.455Z,71.39
2022-09-18T12:34:15.622Z,72.46
2022-09-18T12:37:04.750Z,73.07
2022-09-18T12:40:09.978Z,74.38
2022-09-18T12:42:52.324Z,75.36
2022-09-18T12:45:34.552Z,75.75
2022-09-18T12:48:21.802Z,76.20
2022-09-18T12:51:00.454Z,76.83
2022-09-18T12:53:46.412Z,76.81
2022-09-18T12:56:48.357Z,75.51
2022-09-18T12:59:28.906Z,75.40
2022-09-18T13:02:03.005Z,75.20
2022-09-18T13:04:33.578Z,75.31
2022-09-18T13:07:07.804Z,74.19
2022-09-18T13:09:43.875Z,73.54
2022-09-18T13:12:24.501Z,72.79
2022-09-18T13:14:56.265Z,71.93
2022-09-18T13:17:34.047Z,70.32
2022-09-18T13:20:19.396Z,68.95
2022-09-18T13:22:51.906Z,69.46
2022-09-18T13:25:43.730Z,67.86
2022-09-18T13:28:16.331Z,65.71
2022-09-18T13:30:43.590Z,60.09
2022-09-18T13:33:23.671Z,58.81
2022-09-18T13:35:57.780Z,58.70
2022-09-18T13:38:29.066Z,56.70
2022-09-18T13:41:00.507Z,54.98
2022-09-18T13:43:31.539Z,53.59
2022-09-18T13:46:04.780Z,50.75
2022-09-18T13:48:35.257Z,48.31
2022-09-18T13:51:37.221Z,45.82
2022-09-18T13:54:14.136Z,41.96
2022-09-18T13:57:10.431Z,43.58
2022-09-18T13:59:53.704Z,47.46
2022-09-18T14:02:45.216Z,50.78
2022-09-18T14:05:38.552Z,52.98
2022-09-18T14:08:21.400Z,55.30
2022-09-18T14:11:11.705Z,57.95
2022-09-18T14:13:52.341Z,58.57
2022-09-18T14:16:19.363Z,59.27
2022-09-18T14:18:49.434Z,61.40
2022-09-18T14:21:19.272Z,63.05
2022-09-18T14:23:49.036Z,65.82
2022-09-18T14:26:35.973Z,68.45
2022-09-18T14:29:12.054Z,69.71
2022-09-18T14:31:41.516Z,71.44
2022-09-18T14:34:17.509Z,73.27
2022-09-18T14:36:47.935Z,75.92
2022-09-18T14:39:35.757Z,76.63
2022-09-18T14:42:33.156Z,78.03
2022-09-18T14:45:06.531Z,79.04
2022-09-18T14:47:33.574Z,80.88
2022-09-18T14:50:00.286Z,82.20
2022-09-18T14:52:29.940Z,83.97
2022-09-18T14:54:59.540Z,85.05
2022-09-18T14:57:47.143Z,86.08
2022-09-18T15:00:23.871Z,86.16
2022-09-18T15:02:53.831Z,86.64
2022-09-18T15:05:21.434Z,86.52
2022-09-18T15:08:14.256Z,85.97
2022-09-18T15:10:45.460Z,81.02
2022-09-18T15:13:15.195Z,74.17
2022-09-18T15:15:44.274Z,68.11
2022-09-18T15:18:27.446Z,61.93
2022-09-18T15:20:57.357Z,54.55
2022-09-18T15:23:30.696Z,51.00
2022-09-18T15:26:06.806Z,49.43
2022-09-18T15:28:36.142Z,51.82
2022-09-18T15:31:08.997Z,53.64
2022-09-18T15:33:38.752Z,54.15
2022-09-18T15:36:23.040Z,55.63
2022-09-18T15:38:49.878Z,56.45
2022-09-18T15:41:36.077Z,52.85
2022-09-18T15:44:03.638Z,51.11
2022-09-18T15:46:37.068Z,52.00
2022-09-18T15:49:30.144Z,50.97
2022-09-18T15:51:58.147Z,54.34
2022-09-18T15:54:26.753Z,57.01
2022-09-18T15:56:56.724Z,59.09
2022-09-18T15:59:32.312Z,61.84
2022-09-18T16:02:04.763Z,65.06
2022-09-18T16:04:33.019Z,67.08
2022-09-18T16:07:04.591Z,70.07
2022-09-18T16:09:43.147Z,70.93
2022-09-18T16:12:32.537Z,73.07
2022-09-18T16:15:23.072Z,74.47
2022-09-18T16:18:02.036Z,76.45
2022-09-18T16:20:38.540Z,77.79
2022-09-18T16:23:24.565Z,78.27
2022-09-18T16:26:02.246Z,76.33
2022-09-18T16:28:31.622Z,74.44
2022-09-18T16:30:58.255Z,71.36
2022-09-18T16:33:33.108Z,69.51
2022-09-18T16:36:19.937Z,68.49
2022-09-18T16:38:52.734Z,67.79
2022-09-18T16:41:30.447Z,67.39
2022-09-18T16:43:57.705Z,66.95
2022-09-18T16:46:29.783Z,67.15
2022-09-18T16:48:56.687Z,67.51
2022-09-18T16:51:23.176Z,68.20
2022-09-18T16:53:49.970Z,68.90
2022-09-18T16:56:22.237Z,69.66
2022-09-18T16:58:48.941Z,71.21
2022-09-18T17:01:15.713Z,73.15
2022-09-18T17:03:42.368Z,74.64
2022-09-18T17:06:09.034Z,76.24
2022-09-18T17:08:37.072Z,77.06
2022-09-18T17:11:08.562Z,79.13
2022-09-18T17:13:35.050Z,80.57
2022-09-18T17:16:02.195Z,81.55
2022-09-18T17:18:29.196Z,82.84
2022-09-18T17:20:55.964Z,84.57
2022-09-18T17:23:22.944Z,85.95
2022-09-18T17:25:50.001Z,87.53
2022-09-18T17:28:18.322Z,88.51
2022-09-18T17:30:44.893Z,89.57
2022-09-18T17:33:11.731Z,91.12
2022-09-18T17:35:38.522Z,91.50
2022-09-18T17:38:05.213Z,91.46
2022-09-18T17:40:32.085Z,91.17
2022-09-18T17:42:59.145Z,90.83
2022-09-18T17:45:25.916Z,90.03
2022-09-18T17:47:53.328Z,89.86
2022-09-18T17:50:20.980Z,90.37
2022-09-18T17:52:47.834Z,90.20
2022-09-18T17:55:14.627Z,90.65
2022-09-18T17:57:41.420Z,91.29
2022-09-18T18:00:09.766Z,91.56
2022-09-18T18:02:37.365Z,92.47
2022-09-18T18:05:04.367Z,92.72
2022-09-18T18:07:31.328Z,94.36
2022-09-18T18:09:58.030Z,95.06
2022-09-18T18:12:24.613Z,96.32
2022-09-18T18:14:51.344Z,97.16
2022-09-18T18:17:18.846Z,97.13
2022-09-18T18:19:45.717Z,96.76
2022-09-18T18:22:12.623Z,96.75
2022-09-18T18:24:39.756Z,97.11
2022-09-18T18:31:07.452Z,96.60
2022-09-18T18:33:35.557Z,96.49
2022-09-18T18:36:18.672Z,96.50
2022-09-18T18:38:48.399Z,96.31
2022-09-18T18:41:16.434Z,96.25
2022-09-18T18:43:44.838Z,96.28
2022-09-18T18:46:14.215Z,96.59
2022-09-18T18:48:51.684Z,96.90
2022-09-18T18:51:18.644Z,97.29
2022-09-18T18:53:45.975Z,97.36
2022-09-18T18:56:15.692Z,97.76
2022-09-18T18:58:47.154Z,97.82
2022-09-18T19:01:16.303Z,97.97
2022-09-18T19:03:51.631Z,97.83
2022-09-18T19:06:19.158Z,98.01
2022-09-18T19:08:47.139Z,98.03
2022-09-18T19:11:22.104Z,98.10
2022-09-18T19:13:56.678Z,97.84
2022-09-18T19:16:25.331Z,98.32
2022-09-18T19:19:00.508Z,98.81
2022-09-18T19:21:28.586Z,98.72
2022-09-18T19:23:59.200Z,99.42
2022-09-18T19:26:28.363Z,99.58
2022-09-18T19:28:59.822Z,99.81
2022-09-18T19:31:28.739Z,99.95
2022-09-18T19:33:57.904Z,100.00
2022-09-18T19:36:28.212Z,100.00
2022-09-18T19:38:59.952Z,100.00
2022-09-18T19:41:26.601Z,100.00
2022-09-18T19:43:54.067Z,100.00
2022-09-18T19:46:26.112Z,100.00
2022-09-18T19:48:52.942Z,100.00
2022-09-18T19:51:19.819Z,100.00
2022-09-18T19:53:46.688Z,100.00
2022-09-18T19:56:33.154Z,100.00
2022-09-18T19:59:02.825Z,100.00
2022-09-18T20:01:29.707Z,100.00
2022-09-18T20:03:56.939Z,100.00
2022-09-18T20:06:23.676Z,100.00
2022-09-18T20:08:51.491Z,100.00
2022-09-18T20:11:18.904Z,100.00
2022-09-18T20:13:50.432Z,100.00
2022-09-18T20:16:17.751Z,100.00
2022-09-18T20:18:44.829Z,100.00
2022-09-18T20:21:14.578Z,100.00
2022-09-18T20:23:41.783Z,100.00
2022-09-18T20:26:10.304Z,100.00
2022-09-18T20:28:37.783Z,100.00
2022-09-18T20:31:08.576Z,100.00
2022-09-18T20:33:35.432Z,100.00
2022-09-18T20:36:02.815Z,100.00
2022-09-18T20:38:34.044Z,100.00
2022-09-18T20:41:07.066Z,100.00
2022-09-18T20:43:36.310Z,100.00
2022-09-18T20:46:15.870Z,100.00
2022-09-18T20:48:46.363Z,100.00
2022-09-18T20:51:14.591Z,100.00
2022-09-18T20:53:43.704Z,100.00
2022-09-18T20:56:13.130Z,100.00
2022-09-18T20:58:42.350Z,100.00
2022-09-18T21:01:11.367Z,100.00
2022-09-18T21:03:41.229Z,100.00
2022-09-18T21:06:22.465Z,100.00
2022-09-18T21:08:53.283Z,100.00
2022-09-18T21:11:25.091Z,100.00
2022-09-18T21:13:57.173Z,100.00
2022-09-18T21:16:26.329Z,100.00
2022-09-18T21:18:55.632Z,100.00
2022-09-18T21:21:23.230Z,100.00
2022-09-18T21:24:02.575Z,100.00
2022-09-18T21:26:32.971Z,100.00
2022-09-18T21:29:04.347Z,100.00
2022-09-18T21:31:42.537Z,100.00
2022-09-18T21:34:14.671Z,100.00
2022-09-18T21:36:45.039Z,100.00
2022-09-18T21:39:13.572Z,100.00
2022-09-18T21:41:42.071Z,100.00
2022-09-18T21:44:10.062Z,100.00
2022-09-18T21:46:38.581Z,100.00
2022-09-18T21:49:07.941Z,100.00
2022-09-18T21:51:35.937Z,100.00
2022-09-18T21:54:05.541Z,100.00
2022-09-18T21:56:33.796Z,100.00
2022-09-18T21:59:00.451Z,100.00
2022-09-18T22:01:32.199Z,100.00
2022-09-18T22:04:00.955Z,100.00
2022-09-18T22:06:40.836Z,100.00
2022-09-18T22:09:12.096Z,100.00
2022-09-18T22:11:40.065Z,100.00
2022-09-18T22:14:10.259Z,100.00
2022-09-18T22:16:37.709Z,100.00
2022-09-18T22:19:08.196Z,100.00
2022-09-18T22:21:36.700Z,100.00
2022-09-18T22:24:09.946Z,100.00
2022-09-18T22:26:39.534Z,100.00
2022-09-18T22:29:08.346Z,100.00
2022-09-18T22:31:39.388Z,100.00
2022-09-18T22:34:06.676Z,100.00
2022-09-18T22:36:33.983Z,100.00
2022-09-18T22:39:00.815Z,100.00
2022-09-18T22:41:27.480Z,100.00
2022-09-18T22:43:55.611Z,100.00
2022-09-18T22:46:24.292Z,100.00
2022-09-18T22:48:51.908Z,100.00
2022-09-18T22:51:23.345Z,100.00
2022-09-18T22:53:56.319Z,100.00
2022-09-18T22:56:26.736Z,100.00
2022-09-18T22:58:55.162Z,100.00
2022-09-18T23:01:51.147Z,100.00
2022-09-18T23:04:19.546Z,100.00
2022-09-18T23:06:48.179Z,100.00
2022-09-18T23:09:16.919Z,100.00
2022-09-18T23:11:45.813Z,100.00
2022-09-18T23:14:18.356Z,100.00
2022-09-18T23:16:45.560Z,100.00
2022-09-18T23:19:23.883Z,100.00
2022-09-18T23:21:51.167Z,100.00
2022-09-18T23:24:18.655Z,100.00
2022-09-18T23:26:47.636Z,100.00
2022-09-18T23:29:18.260Z,100.00
2022-09-18T23:31:46.879Z,100.00
2022-09-18T23:34:21.685Z,100.00
2022-09-18T23:39:36.011Z,100.00
2022-09-18T23:42:04.529Z,100.00
2022-09-18T23:44:31.517Z,100.00
2022-09-18T23:46:59.127Z,100.00
2022-09-18T23:49:26.661Z,100.00
2022-09-18T23:51:54.491Z,100.00
2022-09-18T23:54:24.210Z,100.00
2022-09-18T23:56:51.540Z,100.00
2022-09-18T23:59:22.578Z,100.00
